createdAt,value
2023-03-16T00:01:08.726Z,101842.94
2023-03-16T00:03:36.774Z,101844.69
2023-03-16T00:06:03.981Z,101845.50
2023-03-16T00:08:30.886Z,101842.84
2023-03-16T00:10:57.294Z,101842.00
2023-03-16T00:13:25.000Z,101851.47
2023-03-16T00:15:54.245Z,101844.50
2023-03-16T00:18:22.447Z,101833.28
2023-03-16T00:20:53.672Z,101824.66
2023-03-16T00:23:20.125Z,101828.09
2023-03-16T00:25:46.650Z,101823.78
2023-03-16T00:28:13.955Z,101823.78
2023-03-16T00:30:40.764Z,101824.69
2023-03-16T00:33:07.267Z,101815.22
2023-03-16T00:35:34.916Z,101819.53
2023-03-16T00:38:01.478Z,101808.34
2023-03-16T00:40:28.144Z,101809.19
2023-03-16T00:42:55.088Z,101806.59
2023-03-16T00:45:21.650Z,101795.38
2023-03-16T00:47:48.173Z,101798.81
2023-03-16T00:50:15.648Z,101801.38
2023-03-16T00:52:42.341Z,101796.25
2023-03-16T00:55:09.580Z,101800.56
2023-03-16T00:57:36.083Z,101791.06
2023-03-16T01:00:12.636Z,101798.81
2023-03-16T01:02:39.149Z,101788.44
2023-03-16T01:05:06.303Z,101776.31
2023-03-16T01:07:32.702Z,101773.72
2023-03-16T01:09:59.159Z,101771.13
2023-03-16T01:12:25.611Z,101770.25
2023-03-16T01:14:52.359Z,101765.06
2023-03-16T01:17:19.050Z,101763.38
2023-03-16T01:19:46.653Z,101756.47
2023-03-16T01:22:13.695Z,101754.75
2023-03-16T01:24:41.076Z,101753.88
2023-03-16T01:27:08.941Z,101767.69
2023-03-16T01:29:35.533Z,101754.75
2023-03-16T01:32:04.212Z,101745.31
2023-03-16T01:34:31.982Z,101740.13
2023-03-16T01:36:58.915Z,101747.88
2023-03-16T01:39:25.534Z,101735.84
2023-03-16T01:41:52.031Z,101729.78
2023-03-16T01:44:23.021Z,101733.25
2023-03-16T01:46:49.992Z,101726.34
2023-03-16T01:49:30.334Z,101719.41
2023-03-16T01:52:05.500Z,101730.66
2023-03-16T01:54:40.897Z,101728.06
2023-03-16T01:57:17.722Z,101724.59
2023-03-16T01:59:56.752Z,101711.63
2023-03-16T02:02:27.337Z,101701.28
2023-03-16T02:05:17.199Z,101703.03
2023-03-16T02:07:47.862Z,101703.88
2023-03-16T02:10:16.910Z,101701.28
2023-03-16T02:12:44.114Z,101706.41
2023-03-16T02:15:13.437Z,101691.72
2023-03-16T02:17:43.004Z,101694.28
2023-03-16T02:20:24.560Z,101696.81
2023-03-16T02:22:55.411Z,101684.78
2023-03-16T02:25:35.474Z,101676.09
2023-03-16T02:28:23.705Z,101677.81
2023-03-16T02:30:51.258Z,101668.28
2023-03-16T02:33:19.490Z,101671.72
2023-03-16T02:35:46.020Z,101668.22
2023-03-16T02:38:12.567Z,101671.72
2023-03-16T02:40:39.258Z,101675.13
2023-03-16T02:43:20.641Z,101672.53
2023-03-16T02:45:59.512Z,101668.22
2023-03-16T02:48:33.617Z,101669.97
2023-03-16T02:51:00.120Z,101673.44
2023-03-16T02:53:26.547Z,101678.66
2023-03-16T02:55:53.198Z,101684.66
2023-03-16T02:58:19.776Z,101688.16
2023-03-16T03:00:46.450Z,101690.75
2023-03-16T03:03:14.128Z,101688.22
2023-03-16T03:05:40.876Z,101683.03
2023-03-16T03:08:07.589Z,101676.09
2023-03-16T03:10:34.053Z,101672.63
2023-03-16T03:13:00.784Z,101668.34
2023-03-16T03:15:27.429Z,101665.69
2023-03-16T03:17:53.983Z,101670.88
2023-03-16T03:20:21.592Z,101658.78
2023-03-16T03:22:50.135Z,101663.97
2023-03-16T03:25:18.277Z,101662.25
2023-03-16T03:27:46.553Z,101665.69
2023-03-16T03:30:16.446Z,101663.09
2023-03-16T03:32:44.149Z,101662.25
2023-03-16T03:35:12.605Z,101657.94
2023-03-16T03:37:44.239Z,101654.53
2023-03-16T03:40:13.356Z,101645.88
2023-03-16T03:42:41.002Z,101639.84
2023-03-16T03:45:08.529Z,101632.94
2023-03-16T03:47:34.995Z,101635.53
2023-03-16T03:50:01.598Z,101633.81
2023-03-16T03:52:29.038Z,101629.56
2023-03-16T03:54:55.518Z,101624.41
2023-03-16T03:57:22.077Z,101612.34
2023-03-16T03:59:48.583Z,101621.84
2023-03-16T04:02:15.622Z,101614.13
2023-03-16T04:04:44.342Z,101614.16
2023-03-16T04:07:11.277Z,101621.97
2023-03-16T04:09:37.764Z,101630.59
2023-03-16T04:12:05.969Z,101610.84
2023-03-16T04:14:33.049Z,101606.53
2023-03-16T04:16:59.691Z,101603.16
2023-03-16T04:19:26.406Z,101607.47
2023-03-16T04:21:53.328Z,101610.13
2023-03-16T04:24:19.950Z,101601.53
2023-03-16T04:26:46.539Z,101604.13
2023-03-16T04:29:14.513Z,101593.81
2023-03-16T04:31:42.419Z,101607.66
2023-03-16T04:34:09.530Z,101600.75
2023-03-16T04:36:36.257Z,101600.75
2023-03-16T04:39:04.641Z,101598.16
2023-03-16T04:41:31.912Z,101604.22
2023-03-16T04:43:58.938Z,101599.06
2023-03-16T04:46:26.829Z,101605.88
2023-03-16T04:48:53.828Z,101605.84
2023-03-16T04:51:21.563Z,101601.53
2023-03-16T04:53:48.089Z,101598.03
2023-03-16T04:56:19.803Z,101598.03
2023-03-16T04:58:47.990Z,101594.59
2023-03-16T05:01:15.363Z,101601.47
2023-03-16T05:03:42.824Z,101599.69
2023-03-16T05:06:10.171Z,101603.94
2023-03-16T05:08:36.798Z,101602.19
2023-03-16T05:11:03.342Z,101602.19
2023-03-16T05:13:29.823Z,101600.44
2023-03-16T05:15:56.383Z,101595.25
2023-03-16T05:18:23.372Z,101594.34
2023-03-16T05:20:51.764Z,101590.91
2023-03-16T05:23:18.215Z,101588.31
2023-03-16T05:25:47.246Z,101592.63
2023-03-16T05:28:14.959Z,101594.34
2023-03-16T05:30:42.434Z,101584.00
2023-03-16T05:33:09.463Z,101583.16
2023-03-16T05:35:36.470Z,101590.91
2023-03-16T05:38:03.121Z,101591.75
2023-03-16T05:40:29.997Z,101581.41
2023-03-16T05:42:57.600Z,101584.00
2023-03-16T05:45:24.485Z,101583.06
2023-03-16T05:47:50.914Z,101574.44
2023-03-16T05:50:17.605Z,101575.31
2023-03-16T05:52:45.424Z,101578.75
2023-03-16T05:55:14.574Z,101570.13
2023-03-16T05:57:42.056Z,101571.81
2023-03-16T06:00:15.647Z,101570.13
2023-03-16T06:02:43.233Z,101564.94
2023-03-16T06:05:11.223Z,101563.16
2023-03-16T06:07:37.850Z,101566.56
2023-03-16T06:10:05.313Z,101565.72
2023-03-16T06:12:32.517Z,101563.97
2023-03-16T06:14:59.039Z,101568.25
2023-03-16T06:17:25.623Z,101561.31
2023-03-16T06:19:52.120Z,101562.16
2023-03-16T06:22:18.796Z,101557.78
2023-03-16T06:24:45.294Z,101554.28
2023-03-16T06:27:12.395Z,101556.00
2023-03-16T06:29:38.858Z,101547.34
2023-03-16T06:32:05.484Z,101549.03
2023-03-16T06:34:38.337Z,101551.59
2023-03-16T06:37:05.156Z,101548.94
2023-03-16T06:39:31.767Z,101543.63
2023-03-16T06:41:58.599Z,101540.06
2023-03-16T06:44:25.194Z,101537.41
2023-03-16T06:46:51.668Z,101535.59
2023-03-16T06:49:18.181Z,101534.66
2023-03-16T06:51:44.681Z,101529.47
2023-03-16T06:54:11.773Z,101538.03
2023-03-16T06:56:38.417Z,101536.19
2023-03-16T06:59:04.857Z,101534.31
2023-03-16T07:01:31.822Z,101529.81
2023-03-16T07:03:58.478Z,101532.16
2023-03-16T07:06:25.097Z,101530.22
2023-03-16T07:08:51.593Z,101526.56
2023-03-16T07:11:18.272Z,101522.97
2023-03-16T07:13:44.849Z,101526.47
2023-03-16T07:16:11.454Z,101514.41
2023-03-16T07:18:39.810Z,101529.97
2023-03-16T07:21:06.486Z,101515.25
2023-03-16T07:23:32.993Z,101525.56
2023-03-16T07:25:59.550Z,101526.47
2023-03-16T07:28:27.940Z,101526.47
2023-03-16T07:31:03.449Z,101526.47
2023-03-16T07:33:34.754Z,101521.25
2023-03-16T07:36:05.728Z,101511.75
2023-03-16T07:38:33.596Z,101521.34
2023-03-16T07:41:01.094Z,101517.03
2023-03-16T07:43:27.722Z,101527.41
2023-03-16T07:45:54.332Z,101517.97
2023-03-16T07:48:20.926Z,101518.00
2023-03-16T07:50:48.724Z,101523.25
2023-03-16T07:53:17.965Z,101520.66
2023-03-16T07:55:44.783Z,101524.00
2023-03-16T07:58:12.319Z,101525.72
2023-03-16T08:00:39.503Z,101518.69
2023-03-16T08:03:06.985Z,101523.78
2023-03-16T08:05:33.945Z,101522.81
2023-03-16T08:08:04.009Z,101526.13
2023-03-16T08:10:31.875Z,101525.88
2023-03-16T08:13:04.673Z,101519.56
2023-03-16T08:15:33.915Z,101513.13
2023-03-16T08:18:04.381Z,101510.03
2023-03-16T08:20:31.314Z,101499.13
2023-03-16T08:22:57.915Z,101497.81
2023-03-16T08:25:24.471Z,101488.84
2023-03-16T08:27:51.135Z,101490.31
2023-03-16T08:30:18.984Z,101488.84
2023-03-16T08:32:45.538Z,101481.91
2023-03-16T08:35:14.312Z,101488.88
2023-03-16T08:37:42.044Z,101494.03
2023-03-16T08:40:13.343Z,101493.13
2023-03-16T08:42:40.381Z,101494.03
2023-03-16T08:45:12.256Z,101494.72
2023-03-16T08:47:40.489Z,101499.00
2023-03-16T08:50:09.068Z,101502.41
2023-03-16T08:52:36.739Z,101487.63
2023-03-16T08:55:07.256Z,101503.91
2023-03-16T08:57:34.119Z,101484.66
2023-03-16T09:00:01.458Z,101500.09
2023-03-16T09:02:28.076Z,101496.50
2023-03-16T09:04:54.773Z,101500.78
2023-03-16T09:07:21.954Z,101490.28
2023-03-16T09:09:48.486Z,101490.06
2023-03-16T09:12:15.225Z,101482.09
2023-03-16T09:14:41.692Z,101485.44
2023-03-16T09:17:08.102Z,101484.59
2023-03-16T09:19:50.176Z,101482.00
2023-03-16T09:22:19.679Z,101485.72
2023-03-16T09:24:46.535Z,101490.13
2023-03-16T09:27:13.082Z,101491.03
2023-03-16T09:29:41.025Z,101484.94
2023-03-16T09:32:08.615Z,101480.53
2023-03-16T09:34:35.025Z,101484.81
2023-03-16T09:37:01.545Z,101487.38
2023-03-16T09:39:28.204Z,101488.13
2023-03-16T09:42:14.854Z,101485.41
2023-03-16T09:45:09.156Z,101482.75
2023-03-16T09:47:38.584Z,101472.09
2023-03-16T09:50:14.695Z,101464.03
2023-03-16T09:52:57.618Z,101466.25
2023-03-16T09:55:33.224Z,101475.06
2023-03-16T09:58:01.300Z,101467.78
2023-03-16T10:00:33.970Z,101463.84
2023-03-16T10:03:22.212Z,101467.03
2023-03-16T10:05:57.316Z,101464.41
2023-03-16T10:08:28.565Z,101441.78
2023-03-16T10:11:10.612Z,101442.47
2023-03-16T10:13:46.608Z,101446.84
2023-03-16T10:16:19.940Z,101438.97
2023-03-16T10:18:49.378Z,101440.34
2023-03-16T10:21:18.322Z,101437.09
2023-03-16T10:23:47.047Z,101442.59
2023-03-16T10:26:23.026Z,101442.34
2023-03-16T10:28:49.602Z,101434.50
2023-03-16T10:31:18.627Z,101429.94
2023-03-16T10:33:45.641Z,101426.41
2023-03-16T10:36:36.564Z,101412.81
2023-03-16T10:39:07.363Z,101415.00
2023-03-16T10:41:37.185Z,101421.50
2023-03-16T10:44:10.169Z,101406.66
2023-03-16T10:46:41.794Z,101412.91
2023-03-16T10:49:39.460Z,101414.91
2023-03-16T10:52:44.093Z,101402.97
2023-03-16T10:55:24.723Z,101404.41
2023-03-16T10:57:55.123Z,101400.59
2023-03-16T11:00:26.595Z,101406.69
2023-03-16T11:02:55.268Z,101400.53
2023-03-16T11:05:32.344Z,101392.84
2023-03-16T11:07:58.714Z,101388.53
2023-03-16T11:10:25.546Z,101393.09
2023-03-16T11:12:52.492Z,101393.16
2023-03-16T11:15:29.393Z,101381.41
2023-03-16T11:17:56.603Z,101372.88
2023-03-16T11:20:33.526Z,101377.47
2023-03-16T11:23:01.474Z,101369.03
2023-03-16T11:25:43.216Z,101369.88
2023-03-16T11:28:17.706Z,101361.97
2023-03-16T11:30:59.156Z,101356.81
2023-03-16T11:33:27.121Z,101353.22
2023-03-16T11:36:28.068Z,101351.19
2023-03-16T11:39:16.024Z,101340.28
2023-03-16T11:41:51.792Z,101341.97
2023-03-16T11:44:32.779Z,101336.50
2023-03-16T11:47:07.986Z,101335.84
2023-03-16T11:49:44.366Z,101338.69
2023-03-16T11:52:28.985Z,101331.28
2023-03-16T11:55:03.365Z,101336.38
2023-03-16T11:58:01.189Z,101335.69
2023-03-16T12:00:38.469Z,101328.75
2023-03-16T12:03:25.762Z,101329.69
2023-03-16T12:06:20.734Z,101322.06
2023-03-16T12:09:33.869Z,101309.94
2023-03-16T12:12:11.490Z,101306.72
2023-03-16T12:14:44.155Z,101316.91
2023-03-16T12:17:17.890Z,101313.69
2023-03-16T12:20:04.147Z,101306.22
2023-03-16T12:22:38.684Z,101296.72
2023-03-16T12:25:16.209Z,101296.25
2023-03-16T12:27:45.278Z,101292.63
2023-03-16T12:30:36.244Z,101288.94
2023-03-16T12:33:20.860Z,101284.31
2023-03-16T12:36:30.674Z,101271.38
2023-03-16T12:39:05.187Z,101272.44
2023-03-16T12:41:49.019Z,101277.94
2023-03-16T12:44:22.198Z,101265.03
2023-03-16T12:47:09.591Z,101257.72
2023-03-16T12:49:37.094Z,101251.25
2023-03-16T12:52:11.459Z,101253.16
2023-03-16T12:54:51.654Z,101246.22
2023-03-16T12:57:19.615Z,101246.91
2023-03-16T12:59:50.020Z,101243.63
2023-03-16T13:02:26.825Z,101230.03
2023-03-16T13:05:01.061Z,101214.31
2023-03-16T13:07:31.123Z,101209.06
2023-03-16T13:10:02.681Z,101210.03
2023-03-16T13:12:37.140Z,101214.13
2023-03-16T13:15:19.406Z,101208.94
2023-03-16T13:17:48.110Z,101198.00
2023-03-16T13:20:29.302Z,101191.72
2023-03-16T13:23:18.558Z,101202.53
2023-03-16T13:26:04.654Z,101193.44
2023-03-16T13:28:35.292Z,101202.09
2023-03-16T13:31:02.706Z,101182.47
2023-03-16T13:33:37.315Z,101189.81
2023-03-16T13:36:06.272Z,101188.44
2023-03-16T13:38:32.783Z,101168.16
2023-03-16T13:41:09.345Z,101178.13
2023-03-16T13:43:39.547Z,101169.50
2023-03-16T13:46:17.065Z,101167.44
2023-03-16T13:48:44.011Z,101150.88
2023-03-16T13:51:21.068Z,101160.09
2023-03-16T13:53:49.367Z,101159.59
2023-03-16T13:56:21.158Z,101162.44
2023-03-16T13:58:51.609Z,101142.59
2023-03-16T14:01:28.847Z,101141.75
2023-03-16T14:03:58.359Z,101145.97
2023-03-16T14:06:27.697Z,101151.19
2023-03-16T14:09:01.186Z,101145.66
2023-03-16T14:11:28.453Z,101147.44
2023-03-16T14:13:57.491Z,101145.53
2023-03-16T14:16:28.040Z,101134.94
2023-03-16T14:19:16.955Z,101137.75
2023-03-16T14:21:45.972Z,101137.75
2023-03-16T14:24:30.759Z,101133.88
2023-03-16T14:26:58.344Z,101131.34
2023-03-16T14:29:30.589Z,101128.94
2023-03-16T14:31:59.820Z,101120.22
2023-03-16T14:34:35.148Z,101125.97
2023-03-16T14:37:06.774Z,101116.31
2023-03-16T14:39:33.820Z,101105.28
2023-03-16T14:42:04.809Z,101102.25
2023-03-16T14:44:35.400Z,101105.28
2023-03-16T14:47:04.987Z,101102.66
2023-03-16T14:49:35.002Z,101113.16
2023-03-16T14:52:08.274Z,101096.22
2023-03-16T14:54:34.837Z,101094.84
2023-03-16T14:57:05.372Z,101090.75
2023-03-16T14:59:32.988Z,101086.88
2023-03-16T15:02:01.202Z,101079.22
2023-03-16T15:04:33.554Z,101075.63
2023-03-16T15:07:01.634Z,101078.50
2023-03-16T15:09:39.973Z,101069.13
2023-03-16T15:12:18.115Z,101065.47
2023-03-16T15:15:03.580Z,101064.22
2023-03-16T15:17:30.418Z,101063.78
2023-03-16T15:19:57.015Z,101054.78
2023-03-16T15:22:28.658Z,101051.41
2023-03-16T15:24:57.551Z,101048.03
2023-03-16T15:27:27.904Z,101045.31
2023-03-16T15:29:54.601Z,101045.53
2023-03-16T15:32:21.123Z,101039.41
2023-03-16T15:34:47.840Z,101036.47
2023-03-16T15:37:16.114Z,101035.28
2023-03-16T15:39:43.625Z,101028.63
2023-03-16T15:42:16.006Z,101034.53
2023-03-16T15:44:42.960Z,101031.19
2023-03-16T15:47:09.569Z,101027.63
2023-03-16T15:49:46.724Z,101032.88
2023-03-16T15:52:31.995Z,101026.38
2023-03-16T15:55:03.396Z,101031.41
2023-03-16T15:57:31.539Z,101026.78
2023-03-16T15:59:59.278Z,101035.06
2023-03-16T16:02:31.930Z,101026.22
2023-03-16T16:04:59.593Z,101023.16
2023-03-16T16:07:27.152Z,101019.81
2023-03-16T16:09:54.013Z,101011.94
2023-03-16T16:12:26.689Z,101010.81
2023-03-16T16:14:54.051Z,101004.31
2023-03-16T16:17:36.426Z,101008.72
2023-03-16T16:20:23.827Z,101010.50
2023-03-16T16:22:51.982Z,101007.16
2023-03-16T16:25:20.527Z,101007.59
2023-03-16T16:27:47.357Z,100998.69
2023-03-16T16:30:26.198Z,101001.22
2023-03-16T16:32:53.530Z,101004.97
2023-03-16T16:35:22.611Z,100998.25
2023-03-16T16:37:50.065Z,100995.13
2023-03-16T16:40:25.727Z,100992.78
2023-03-16T16:42:53.812Z,100999.84
2023-03-16T16:45:23.294Z,101007.09
2023-03-16T16:47:52.269Z,101006.44
2023-03-16T16:50:21.502Z,101006.88
2023-03-16T16:52:49.798Z,101009.06
2023-03-16T16:55:16.502Z,101004.53
2023-03-16T16:57:43.957Z,101008.53
2023-03-16T17:00:18.494Z,101009.75
2023-03-16T17:02:53.629Z,101014.69
2023-03-16T17:05:25.732Z,101014.22
2023-03-16T17:07:53.602Z,101012.94
2023-03-16T17:10:23.671Z,101005.03
2023-03-16T17:12:52.110Z,101002.25
2023-03-16T17:15:32.914Z,101003.13
2023-03-16T17:18:03.699Z,101006.44
2023-03-16T17:20:31.126Z,101014.88
2023-03-16T17:22:58.771Z,101012.84
2023-03-16T17:25:26.338Z,101002.19
2023-03-16T17:27:56.412Z,101008.84
2023-03-16T17:30:32.212Z,101019.03
2023-03-16T17:33:13.787Z,101016.69
2023-03-16T17:35:41.545Z,101019.88
2023-03-16T17:38:20.433Z,101011.56
2023-03-16T17:40:47.370Z,101004.16
2023-03-16T17:43:16.333Z,101006.22
2023-03-16T17:45:44.614Z,101007.78
2023-03-16T17:48:14.572Z,101002.44
2023-03-16T17:50:41.511Z,101002.13
2023-03-16T17:53:08.174Z,101000.88
2023-03-16T17:55:35.056Z,100986.66
2023-03-16T17:58:02.192Z,100979.16
2023-03-16T18:00:35.777Z,100979.03
2023-03-16T18:03:13.785Z,100991.97
2023-03-16T18:05:41.190Z,100992.31
2023-03-16T18:08:16.191Z,100990.97
2023-03-16T18:10:45.467Z,100991.31
2023-03-16T18:13:24.748Z,100995.94
2023-03-16T18:15:51.930Z,100989.13
2023-03-16T18:18:22.286Z,100997.88
2023-03-16T18:20:54.978Z,100995.44
2023-03-16T18:23:23.997Z,101000.94
2023-03-16T18:25:52.656Z,100997.38
2023-03-16T18:28:20.518Z,101007.00
2023-03-16T18:30:51.983Z,101001.94
2023-03-16T18:33:43.866Z,100999.16
2023-03-16T18:36:17.752Z,100999.41
2023-03-16T18:38:47.284Z,100991.97
2023-03-16T18:41:19.853Z,100996.69
2023-03-16T18:43:47.350Z,100994.50
2023-03-16T18:46:32.491Z,100998.28
2023-03-16T18:49:02.184Z,101003.75
2023-03-16T18:51:29.687Z,101006.63
2023-03-16T18:53:56.655Z,101010.31
2023-03-16T18:56:28.442Z,100991.47
2023-03-16T18:58:56.412Z,100983.00
2023-03-16T19:01:29.630Z,100980.59
2023-03-16T19:03:57.862Z,100971.16
2023-03-16T19:06:33.713Z,100974.84
2023-03-16T19:09:10.898Z,100972.16
2023-03-16T19:11:42.654Z,100983.53
2023-03-16T19:14:17.651Z,100986.88
2023-03-16T19:16:45.273Z,100987.81
2023-03-16T19:19:12.410Z,100982.69
2023-03-16T19:21:39.740Z,100986.28
2023-03-16T19:24:08.293Z,100974.00
2023-03-16T19:26:37.540Z,100962.88
2023-03-16T19:29:05.968Z,100963.28
2023-03-16T19:31:33.505Z,100964.50
2023-03-16T19:34:00.272Z,100946.41
2023-03-16T19:36:33.882Z,100952.72
2023-03-16T19:39:00.752Z,100949.31
2023-03-16T19:41:37.079Z,100947.72
2023-03-16T19:44:25.372Z,100949.47
2023-03-16T19:46:52.318Z,100950.41
2023-03-16T19:49:27.082Z,100941.66
2023-03-16T19:51:55.267Z,100942.84
2023-03-16T19:54:23.053Z,100953.34
2023-03-16T19:56:50.507Z,100944.72
2023-03-16T19:59:17.513Z,100941.69
2023-03-16T20:01:44.744Z,100945.28
2023-03-16T20:04:23.479Z,100942.94
2023-03-16T20:06:50.925Z,100945.44
2023-03-16T20:09:18.309Z,100936.03
2023-03-16T20:11:45.936Z,100935.94
2023-03-16T20:14:30.712Z,100928.38
2023-03-16T20:16:57.774Z,100947.53
2023-03-16T20:19:24.590Z,100933.75
2023-03-16T20:21:51.925Z,100928.69
2023-03-16T20:24:20.866Z,100932.22
2023-03-16T20:26:51.318Z,100943.53
2023-03-16T20:29:29.202Z,100953.22
2023-03-16T20:31:56.082Z,100954.91
2023-03-16T20:34:26.517Z,100943.53
2023-03-16T20:36:53.408Z,100927.75
2023-03-16T20:39:19.942Z,100915.66
2023-03-16T20:41:46.549Z,100910.28
2023-03-16T20:44:18.098Z,100907.75
2023-03-16T20:46:45.170Z,100920.03
2023-03-16T20:49:28.687Z,100916.34
2023-03-16T20:51:55.453Z,100921.63
2023-03-16T20:54:21.893Z,100915.41
2023-03-16T20:56:49.131Z,100911.97
2023-03-16T20:59:31.548Z,100907.69
2023-03-16T21:01:58.448Z,100900.69
2023-03-16T21:04:27.911Z,100898.78
2023-03-16T21:06:55.858Z,100901.53
2023-03-16T21:09:22.629Z,100904.38
2023-03-16T21:11:49.574Z,100901.94
2023-03-16T21:14:23.958Z,100913.19
2023-03-16T21:16:51.457Z,100912.13
2023-03-16T21:19:21.514Z,100912.13
2023-03-16T21:21:48.868Z,100900.59
2023-03-16T21:24:15.402Z,100891.28
2023-03-16T21:26:42.830Z,100891.72
2023-03-16T21:29:23.701Z,100905.16
2023-03-16T21:31:50.309Z,100904.47
2023-03-16T21:34:24.173Z,100909.09
2023-03-16T21:36:50.866Z,100906.78
2023-03-16T21:39:23.660Z,100906.25
2023-03-16T21:41:50.747Z,100903.09
2023-03-16T21:44:17.372Z,100897.25
2023-03-16T21:46:44.580Z,100891.44
2023-03-16T21:49:12.094Z,100898.56
2023-03-16T21:51:42.831Z,100903.78
2023-03-16T21:54:13.552Z,100898.63
2023-03-16T21:56:41.887Z,100892.69
2023-03-16T21:59:08.640Z,100888.59
2023-03-16T22:01:44.858Z,100886.06
2023-03-16T22:04:17.779Z,100887.91
2023-03-16T22:06:45.890Z,100888.91
2023-03-16T22:09:21.002Z,100889.13
2023-03-16T22:11:47.485Z,100879.75
2023-03-16T22:14:13.986Z,100866.00
2023-03-16T22:16:41.256Z,100868.88
2023-03-16T22:19:13.460Z,100868.09
2023-03-16T22:21:42.628Z,100882.81
2023-03-16T22:24:30.331Z,100874.88
2023-03-16T22:26:57.941Z,100873.00
2023-03-16T22:29:28.215Z,100868.75
2023-03-16T22:32:03.029Z,100867.97
2023-03-16T22:34:43.755Z,100871.34
2023-03-16T22:37:13.193Z,100863.44
2023-03-16T22:39:40.590Z,100880.69
2023-03-16T22:42:19.187Z,100877.09
2023-03-16T22:44:45.762Z,100871.88
2023-03-16T22:47:24.117Z,100876.25
2023-03-16T22:49:50.672Z,100869.19
2023-03-16T22:52:17.860Z,100856.97
2023-03-16T22:54:46.368Z,100857.06
2023-03-16T22:57:15.508Z,100862.31
2023-03-16T22:59:43.393Z,100865.00
2023-03-16T23:02:19.067Z,100859.72
2023-03-16T23:04:45.764Z,100847.63
2023-03-16T23:07:16.766Z,100852.88
2023-03-16T23:09:43.146Z,100862.47
2023-03-16T23:12:15.444Z,100877.09
2023-03-16T23:14:42.253Z,100877.00
2023-03-16T23:17:26.976Z,100882.06
2023-03-16T23:19:54.200Z,100871.66
2023-03-16T23:22:20.610Z,100863.56
2023-03-16T23:24:47.302Z,100842.72
2023-03-16T23:27:21.339Z,100846.09
2023-03-16T23:29:48.493Z,100852.31
2023-03-16T23:32:17.108Z,100849.78
2023-03-16T23:34:43.762Z,100849.69
2023-03-16T23:37:10.293Z,100860.13
2023-03-16T23:39:36.915Z,100852.22
2023-03-16T23:42:04.126Z,100858.28
2023-03-16T23:44:31.196Z,100852.16
2023-03-16T23:46:59.805Z,100853.81
2023-03-16T23:49:31.127Z,100855.00
2023-03-16T23:52:02.751Z,100868.91
2023-03-16T23:54:31.797Z,100873.41
2023-03-16T23:56:58.732Z,100863.09
2023-03-16T23:59:26.567Z,100870.13
